createdAt,value
2017-07-24T00:01:38.351Z,56.39
2017-07-24T00:04:05.911Z,56.37
2017-07-24T00:06:33.886Z,56.23
2017-07-24T00:09:01.407Z,56.33
2017-07-24T00:11:29.790Z,56.20
2017-07-24T00:13:57.317Z,56.29
2017-07-24T00:16:24.825Z,56.28
2017-07-24T00:18:52.401Z,56.30
2017-07-24T00:21:19.919Z,56.50
2017-07-24T00:23:47.422Z,56.44
2017-07-24T00:26:14.978Z,56.49
2017-07-24T00:28:42.491Z,56.57
2017-07-24T00:31:09.992Z,56.59
2017-07-24T00:33:37.581Z,56.56
2017-07-24T00:36:05.090Z,56.56
2017-07-24T00:38:32.645Z,56.62
2017-07-24T00:41:00.241Z,56.46
2017-07-24T00:43:27.744Z,56.52
2017-07-24T00:45:55.306Z,56.41
2017-07-24T00:48:22.802Z,56.44
2017-07-24T00:50:50.342Z,56.55
2017-07-24T00:53:17.892Z,56.63
2017-07-24T00:55:45.458Z,56.60
2017-07-24T00:58:12.963Z,56.62
2017-07-24T01:00:40.477Z,56.67
2017-07-24T01:03:08.037Z,56.67
2017-07-24T01:05:35.532Z,56.63
2017-07-24T01:08:03.025Z,56.79
2017-07-24T01:10:30.572Z,56.69
2017-07-24T01:12:58.069Z,56.68
2017-07-24T01:15:25.608Z,56.85
2017-07-24T01:17:53.391Z,56.89
2017-07-24T01:20:20.906Z,57.02
2017-07-24T01:22:48.755Z,57.02
2017-07-24T01:25:16.292Z,57.05
2017-07-24T01:27:43.789Z,56.91
2017-07-24T01:30:11.333Z,57.00
2017-07-24T01:32:38.887Z,56.80
2017-07-24T01:35:06.423Z,56.96
2017-07-24T01:37:34.009Z,57.07
2017-07-24T01:40:01.605Z,57.17
2017-07-24T01:42:29.164Z,57.21
2017-07-24T01:44:56.676Z,57.17
2017-07-24T01:47:24.182Z,57.11
2017-07-24T01:49:51.734Z,57.28
2017-07-24T01:52:19.251Z,57.35
2017-07-24T01:54:46.809Z,57.33
2017-07-24T01:57:14.377Z,57.35
2017-07-24T01:59:41.885Z,57.22
2017-07-24T02:02:10.041Z,57.28
2017-07-24T02:04:37.580Z,57.32
2017-07-24T02:07:05.166Z,57.27
2017-07-24T02:09:32.670Z,57.31
2017-07-24T02:12:00.173Z,57.36
2017-07-24T02:14:27.735Z,57.38
2017-07-24T02:16:55.235Z,57.40
2017-07-24T02:19:22.802Z,57.47
2017-07-24T02:21:51.081Z,57.52
2017-07-24T02:24:18.587Z,57.42
2017-07-24T02:26:46.142Z,57.37
2017-07-24T02:29:13.647Z,57.28
2017-07-24T02:31:41.142Z,57.42
2017-07-24T02:34:08.683Z,57.47
2017-07-24T02:36:36.238Z,57.46
2017-07-24T02:39:03.847Z,57.45
2017-07-24T02:41:31.350Z,57.44
2017-07-24T02:43:58.906Z,57.45
2017-07-24T02:46:26.412Z,57.36
2017-07-24T02:48:53.973Z,57.36
2017-07-24T02:51:21.478Z,57.38
2017-07-24T02:53:48.998Z,57.42
2017-07-24T02:56:16.542Z,57.45
2017-07-24T02:58:44.062Z,57.35
2017-07-24T03:01:11.618Z,57.41
2017-07-24T03:03:39.126Z,57.33
2017-07-24T03:06:06.633Z,57.33
2017-07-24T03:08:34.188Z,57.44
2017-07-24T03:11:01.731Z,57.46
2017-07-24T03:13:32.079Z,57.41
2017-07-24T03:15:59.616Z,57.53
2017-07-24T03:18:27.129Z,57.48
2017-07-24T03:20:54.682Z,57.55
2017-07-24T03:23:22.189Z,57.32
2017-07-24T03:25:49.714Z,57.39
2017-07-24T03:28:17.278Z,57.41
2017-07-24T03:30:44.794Z,57.19
2017-07-24T03:33:13.087Z,57.26
2017-07-24T03:35:40.681Z,57.24
2017-07-24T03:38:08.187Z,57.19
2017-07-24T03:40:35.689Z,57.08
2017-07-24T03:43:03.248Z,57.04
2017-07-24T03:45:30.761Z,57.03
2017-07-24T03:47:58.282Z,56.98
2017-07-24T03:50:25.838Z,56.81
2017-07-24T03:52:53.369Z,56.75
2017-07-24T03:55:20.865Z,56.78
2017-07-24T03:57:49.181Z,56.54
2017-07-24T04:00:16.709Z,56.46
2017-07-24T04:02:44.232Z,56.25
2017-07-24T04:05:12.018Z,55.86
2017-07-24T04:07:40.048Z,55.48
2017-07-24T04:10:07.593Z,54.94
2017-07-24T04:12:35.093Z,54.66
2017-07-24T04:15:02.649Z,54.18
2017-07-24T04:17:30.169Z,54.17
2017-07-24T04:19:57.672Z,54.37
2017-07-24T04:22:25.224Z,54.15
2017-07-24T04:24:52.733Z,53.77
2017-07-24T04:27:20.237Z,54.00
2017-07-24T04:29:47.781Z,53.50
2017-07-24T04:32:15.341Z,53.14
2017-07-24T04:34:42.916Z,52.49
2017-07-24T04:37:10.426Z,52.85
2017-07-24T04:39:37.932Z,53.37
2017-07-24T04:42:05.482Z,53.20
2017-07-24T04:44:33.277Z,53.04
2017-07-24T04:47:00.785Z,53.56
2017-07-24T04:49:28.376Z,53.57
2017-07-24T04:51:55.896Z,52.78
2017-07-24T04:54:23.405Z,52.85
2017-07-24T04:56:51.006Z,53.06
2017-07-24T04:59:18.561Z,53.43
2017-07-24T05:01:46.202Z,53.58
2017-07-24T05:04:13.757Z,53.71
2017-07-24T05:06:41.289Z,53.93
2017-07-24T05:09:09.137Z,53.89
2017-07-24T05:11:36.654Z,54.04
2017-07-24T05:14:04.181Z,54.14
2017-07-24T05:16:31.730Z,54.23
2017-07-24T05:19:00.001Z,54.19
2017-07-24T05:21:27.576Z,54.26
2017-07-24T05:23:55.107Z,54.40
2017-07-24T05:26:22.601Z,54.19
2017-07-24T05:28:50.237Z,54.28
2017-07-24T05:31:17.800Z,54.13
2017-07-24T05:33:45.561Z,54.11
2017-07-24T05:36:13.891Z,54.06
2017-07-24T05:38:41.407Z,54.00
2017-07-24T05:41:08.960Z,54.00
2017-07-24T05:43:36.519Z,54.26
2017-07-24T05:46:04.094Z,54.56
2017-07-24T05:48:31.752Z,54.59
2017-07-24T05:50:59.510Z,54.83
2017-07-24T05:53:27.133Z,54.86
2017-07-24T05:55:54.682Z,54.84
2017-07-24T05:58:23.314Z,54.85
2017-07-24T06:00:50.899Z,54.91
2017-07-24T06:03:18.512Z,54.96
2017-07-24T06:05:46.066Z,54.95
2017-07-24T06:08:13.685Z,54.94
2017-07-24T06:10:41.575Z,54.79
2017-07-24T06:13:09.638Z,54.85
2017-07-24T06:15:37.235Z,54.98
2017-07-24T06:18:04.869Z,54.75
2017-07-24T06:20:32.620Z,54.87
2017-07-24T06:23:00.385Z,54.82
2017-07-24T06:25:28.044Z,54.80
2017-07-24T06:27:55.599Z,55.11
2017-07-24T06:30:27.742Z,54.93
2017-07-24T06:33:01.871Z,54.92
2017-07-24T06:35:35.848Z,55.04
2017-07-24T06:41:12.998Z,54.94
2017-07-24T06:47:00.485Z,55.14
2017-07-24T06:49:28.299Z,55.17
2017-07-24T06:52:33.335Z,55.30
2017-07-24T06:55:15.878Z,55.39
2017-07-24T06:57:50.843Z,55.39
2017-07-24T07:00:54.916Z,55.30
2017-07-24T07:03:24.429Z,55.32
2017-07-24T07:05:55.109Z,55.50
2017-07-24T07:08:26.624Z,55.57
2017-07-24T07:11:03.902Z,55.55
2017-07-24T07:13:54.182Z,55.42
2017-07-24T07:16:56.323Z,55.32
2017-07-24T07:19:34.544Z,55.42
2017-07-24T07:22:07.491Z,55.34
2017-07-24T07:24:42.983Z,55.43
2017-07-24T07:27:16.852Z,55.43
2017-07-24T07:30:06.622Z,55.45
2017-07-24T07:32:38.417Z,55.23
2017-07-24T07:37:49.791Z,55.12
2017-07-24T07:40:32.385Z,55.02
2017-07-24T07:43:02.406Z,54.98
2017-07-24T08:11:30.077Z,54.92
2017-07-24T08:13:58.688Z,54.95
2017-07-24T08:16:29.933Z,54.89
2017-07-24T08:19:02.192Z,54.76
2017-07-24T08:21:31.513Z,54.66
2017-07-24T08:24:00.357Z,54.85
2017-07-24T08:27:03.200Z,54.67
2017-07-24T08:29:33.420Z,54.56
2017-07-24T08:32:17.647Z,54.61
2017-07-24T08:34:53.426Z,54.43
2017-07-24T08:37:56.765Z,54.46
2017-07-24T08:40:30.278Z,54.43
2017-07-24T08:46:10.119Z,54.12
2017-07-24T08:48:43.668Z,54.23
2017-07-24T08:54:40.477Z,54.09
2017-07-24T08:57:08.559Z,54.06
2017-07-24T08:59:39.488Z,53.98
2017-07-24T09:02:07.454Z,53.99
2017-07-24T09:04:35.334Z,53.90
2017-07-24T09:07:03.054Z,53.83
2017-07-24T09:09:31.167Z,53.87
2017-07-24T09:11:59.510Z,53.80
2017-07-24T09:14:31.412Z,53.89
2017-07-24T09:17:08.877Z,53.85
2017-07-24T09:19:38.360Z,53.74
2017-07-24T09:22:12.494Z,53.65
2017-07-24T09:24:49.178Z,53.58
2017-07-24T09:27:16.855Z,53.57
2017-07-24T09:29:44.577Z,53.42
2017-07-24T09:32:12.295Z,53.51
2017-07-24T09:34:40.951Z,53.35
2017-07-24T09:37:08.594Z,53.40
2017-07-24T09:39:36.220Z,53.34
2017-07-24T09:42:04.353Z,53.38
2017-07-24T09:44:32.408Z,53.33
2017-07-24T09:47:00.088Z,53.28
2017-07-24T09:49:28.131Z,53.18
2017-07-24T09:51:56.235Z,53.05
2017-07-24T09:54:27.507Z,52.77
2017-07-24T09:56:56.211Z,52.87
2017-07-24T09:59:24.168Z,52.76
2017-07-24T10:01:58.385Z,52.74
2017-07-24T10:04:28.206Z,52.65
2017-07-24T10:06:58.910Z,52.69
2017-07-24T10:09:26.725Z,52.79
2017-07-24T10:11:55.832Z,52.79
2017-07-24T10:14:23.772Z,52.90
2017-07-24T10:16:52.653Z,52.89
2017-07-24T10:19:21.995Z,52.87
2017-07-24T10:21:49.648Z,53.14
2017-07-24T10:24:19.306Z,52.94
2017-07-24T10:26:47.243Z,52.91
2017-07-24T10:29:15.143Z,53.03
2017-07-24T10:31:43.443Z,53.03
2017-07-24T10:34:11.411Z,53.21
2017-07-24T10:36:39.493Z,53.20
2017-07-24T10:39:07.750Z,53.22
2017-07-24T10:41:35.718Z,53.38
2017-07-24T10:44:03.278Z,53.21
2017-07-24T10:46:36.317Z,53.33
2017-07-24T10:49:05.107Z,53.32
2017-07-24T10:51:33.568Z,53.40
2017-07-24T10:54:01.329Z,53.41
2017-07-24T10:56:31.144Z,53.46
2017-07-24T10:58:59.733Z,53.43
2017-07-24T11:01:28.259Z,53.48
2017-07-24T11:03:56.177Z,53.37
2017-07-24T11:06:24.868Z,53.33
2017-07-24T11:08:53.375Z,53.24
2017-07-24T11:11:23.082Z,53.21
2017-07-24T11:13:52.046Z,53.45
2017-07-24T11:16:20.461Z,53.59
2017-07-24T11:18:48.542Z,53.52
2017-07-24T11:21:16.763Z,53.46
2017-07-24T11:23:45.390Z,53.52
2017-07-24T11:26:14.030Z,53.43
2017-07-24T11:28:41.639Z,53.33
2017-07-24T11:31:11.274Z,53.33
2017-07-24T11:33:39.513Z,53.32
2017-07-24T11:36:08.507Z,53.28
2017-07-24T11:38:36.285Z,53.40
2017-07-24T11:41:08.543Z,53.36
2017-07-24T11:43:36.980Z,53.07
2017-07-24T11:46:11.343Z,53.05
2017-07-24T11:51:48.134Z,53.22
2017-07-24T11:54:15.906Z,53.23
2017-07-24T11:56:43.474Z,53.35
2017-07-24T11:59:10.999Z,53.19
2017-07-24T12:01:39.584Z,53.14
2017-07-24T12:04:07.169Z,53.14
2017-07-24T12:06:34.717Z,53.10
2017-07-24T12:09:04.853Z,53.12
2017-07-24T12:11:33.427Z,52.97
2017-07-24T12:14:01.870Z,52.90
2017-07-24T12:16:29.571Z,52.89
2017-07-24T12:18:57.272Z,52.77
2017-07-24T12:21:24.837Z,52.77
2017-07-24T12:23:52.487Z,52.57
2017-07-24T12:26:20.049Z,52.71
2017-07-24T12:28:47.600Z,52.61
2017-07-24T12:31:15.285Z,52.60
2017-07-24T12:33:42.863Z,52.47
2017-07-24T12:36:11.279Z,52.40
2017-07-24T12:38:47.157Z,52.42
2017-07-24T12:44:14.822Z,52.48
2017-07-24T12:46:43.887Z,52.53
2017-07-24T12:49:11.794Z,52.48
2017-07-24T12:51:39.580Z,52.94
2017-07-24T12:54:07.471Z,52.79
2017-07-24T12:56:35.143Z,52.75
2017-07-24T12:59:02.798Z,52.76
2017-07-24T13:01:32.006Z,52.70
2017-07-24T13:03:59.613Z,52.70
2017-07-24T13:06:27.221Z,52.65
2017-07-24T13:08:55.225Z,52.70
2017-07-24T13:11:23.069Z,52.59
2017-07-24T13:13:50.643Z,52.59
2017-07-24T13:16:18.229Z,52.81
2017-07-24T13:18:45.855Z,52.91
2017-07-24T13:21:13.529Z,52.73
2017-07-24T13:23:41.133Z,52.95
2017-07-24T13:26:08.821Z,52.87
2017-07-24T13:28:36.614Z,53.33
2017-07-24T13:31:05.226Z,53.10
2017-07-24T13:33:52.002Z,53.22
2017-07-24T13:36:39.460Z,53.36
2017-07-24T13:39:07.058Z,53.35
2017-07-24T13:41:34.855Z,53.55
2017-07-24T13:44:02.718Z,53.86
2017-07-24T13:46:30.589Z,53.60
2017-07-24T13:48:59.513Z,53.81
2017-07-24T13:51:27.270Z,53.75
2017-07-24T13:53:55.127Z,53.78
2017-07-24T13:56:25.075Z,53.82
2017-07-24T13:58:54.173Z,53.84
2017-07-24T14:01:21.933Z,53.85
2017-07-24T14:03:50.115Z,54.05
2017-07-24T14:06:18.237Z,54.21
2017-07-24T14:08:45.858Z,54.26
2017-07-24T14:11:16.886Z,54.12
2017-07-24T14:13:44.553Z,54.14
2017-07-24T14:16:12.777Z,54.28
2017-07-24T14:18:40.931Z,54.28
2017-07-24T14:21:08.739Z,54.21
2017-07-24T14:23:36.517Z,54.28
2017-07-24T14:26:04.326Z,54.24
2017-07-24T14:28:34.647Z,54.26
2017-07-24T14:31:02.659Z,54.32
2017-07-24T14:33:30.588Z,54.37
2017-07-24T14:35:58.187Z,54.71
2017-07-24T14:38:25.818Z,54.55
2017-07-24T14:40:53.453Z,54.59
2017-07-24T14:43:21.013Z,54.56
2017-07-24T14:53:07.842Z,42.46
2017-07-24T14:58:26.110Z,49.66
2017-07-24T15:00:53.637Z,51.27
2017-07-24T15:03:21.321Z,52.29
2017-07-24T15:05:48.950Z,52.95
2017-07-24T15:08:16.739Z,53.37
2017-07-24T15:12:05.660Z,49.40
2017-07-24T15:14:33.190Z,50.40
2017-07-24T15:17:00.776Z,50.89
2017-07-24T15:19:28.412Z,51.13
2017-07-24T15:21:56.010Z,51.20
2017-07-24T15:24:23.554Z,51.23
2017-07-24T15:26:51.177Z,51.30
2017-07-24T15:29:18.794Z,51.52
2017-07-24T15:31:46.374Z,51.60
2017-07-24T15:34:14.699Z,51.67
2017-07-24T15:36:42.259Z,51.61
2017-07-24T15:39:09.930Z,51.64
2017-07-24T15:41:37.556Z,51.63
2017-07-24T15:44:05.177Z,51.51
2017-07-24T15:46:32.762Z,51.48
2017-07-24T15:49:00.333Z,51.43
2017-07-24T15:51:27.881Z,51.50
2017-07-24T15:53:55.451Z,51.56
2017-07-24T15:56:23.092Z,51.52
2017-07-24T15:58:50.740Z,51.31
2017-07-24T16:01:18.315Z,51.08
2017-07-24T16:03:45.867Z,51.27
2017-07-24T16:06:13.465Z,51.09
2017-07-24T16:08:41.031Z,51.13
2017-07-24T16:11:08.590Z,51.13
2017-07-24T16:13:36.225Z,51.09
2017-07-24T16:16:03.726Z,51.06
2017-07-24T16:18:31.237Z,51.02
2017-07-24T16:20:58.898Z,50.99
2017-07-24T16:23:26.523Z,50.88
2017-07-24T16:25:54.073Z,50.67
2017-07-24T16:28:21.585Z,50.68
2017-07-24T16:30:49.149Z,50.61
2017-07-24T16:33:16.662Z,50.62
2017-07-24T16:35:44.222Z,50.66
2017-07-24T16:38:11.774Z,50.56
2017-07-24T16:40:39.282Z,50.47
2017-07-24T16:43:06.842Z,50.53
2017-07-24T16:45:34.345Z,50.74
2017-07-24T16:48:01.878Z,50.62
2017-07-24T16:50:29.472Z,50.51
2017-07-24T16:52:57.022Z,50.61
2017-07-24T16:55:24.536Z,50.67
2017-07-24T16:57:52.096Z,50.67
2017-07-24T17:00:19.721Z,50.54
2017-07-24T17:02:47.256Z,50.43
2017-07-24T17:05:14.798Z,50.33
2017-07-24T17:07:42.305Z,50.35
2017-07-24T17:10:09.857Z,50.30
2017-07-24T17:12:37.414Z,50.25
2017-07-24T17:15:04.926Z,50.10
2017-07-24T17:17:32.441Z,50.05
2017-07-24T17:19:59.996Z,49.88
2017-07-24T17:22:27.505Z,49.72
2017-07-24T17:24:55.106Z,49.41
2017-07-24T17:27:22.613Z,49.46
2017-07-24T17:29:50.192Z,49.40
2017-07-24T17:32:17.761Z,49.34
2017-07-24T17:34:45.265Z,49.22
2017-07-24T17:37:12.814Z,49.16
2017-07-24T17:39:40.379Z,49.06
2017-07-24T17:42:07.892Z,48.94
2017-07-24T17:44:35.390Z,48.87
2017-07-24T17:47:02.947Z,48.79
2017-07-24T17:49:30.450Z,48.76
2017-07-24T17:51:57.964Z,48.70
2017-07-24T17:54:25.509Z,48.68
2017-07-24T17:56:53.058Z,48.68
2017-07-24T17:59:20.629Z,48.63
2017-07-24T18:01:48.173Z,48.58
2017-07-24T18:04:15.677Z,48.71
2017-07-24T18:06:43.233Z,48.77
2017-07-24T18:09:10.749Z,48.80
2017-07-24T18:11:38.259Z,48.76
2017-07-24T18:14:05.807Z,48.73
2017-07-24T18:16:33.330Z,48.64
2017-07-24T18:19:00.844Z,48.62
2017-07-24T18:21:28.395Z,48.54
2017-07-24T18:23:55.915Z,48.46
2017-07-24T18:26:23.512Z,48.41
2017-07-24T18:28:51.016Z,48.46
2017-07-24T18:31:18.562Z,48.44
2017-07-24T18:33:46.118Z,48.40
2017-07-24T18:36:13.680Z,48.46
2017-07-24T18:38:41.199Z,48.42
2017-07-24T18:41:08.701Z,48.43
2017-07-24T18:43:36.275Z,48.39
2017-07-24T18:46:03.783Z,48.37
2017-07-24T18:48:31.289Z,48.33
2017-07-24T18:50:58.829Z,48.32
2017-07-24T18:53:26.338Z,48.30
2017-07-24T18:55:53.916Z,48.34
2017-07-24T18:58:21.448Z,48.33
2017-07-24T19:00:48.959Z,48.17
2017-07-24T19:03:16.521Z,48.27
2017-07-24T19:05:44.042Z,48.25
2017-07-24T19:08:11.605Z,48.18
2017-07-24T19:10:39.109Z,48.16
2017-07-24T19:13:06.617Z,48.11
2017-07-24T19:15:34.201Z,48.27
2017-07-24T19:18:01.709Z,48.08
2017-07-24T19:20:29.225Z,48.17
2017-07-24T19:22:56.785Z,48.09
2017-07-24T19:25:24.297Z,48.10
2017-07-24T19:27:51.843Z,48.11
2017-07-24T19:30:19.396Z,47.97
2017-07-24T19:32:46.974Z,48.08
2017-07-24T19:35:14.474Z,48.16
2017-07-24T19:37:41.989Z,48.32
2017-07-24T19:40:09.573Z,48.29
2017-07-24T19:42:37.252Z,48.38
2017-07-24T19:45:04.917Z,48.40
2017-07-24T19:47:32.416Z,48.47
2017-07-24T19:49:59.970Z,48.53
2017-07-24T19:52:27.485Z,48.64
2017-07-24T19:54:55.046Z,48.69
2017-07-24T19:57:22.549Z,48.77
2017-07-24T19:59:50.125Z,48.83
2017-07-24T20:02:17.668Z,48.93
2017-07-24T20:04:45.214Z,48.93
2017-07-24T20:07:12.721Z,49.09
2017-07-24T20:09:40.233Z,49.15
2017-07-24T20:12:07.806Z,49.26
2017-07-24T20:14:35.318Z,49.31
2017-07-24T20:17:02.821Z,49.38
2017-07-24T20:19:30.386Z,49.42
2017-07-24T20:21:57.895Z,49.48
2017-07-24T20:24:25.401Z,49.56
2017-07-24T20:26:53.013Z,49.58
2017-07-24T20:29:20.570Z,49.62
2017-07-24T20:31:48.093Z,49.67
2017-07-24T20:34:15.685Z,49.69
2017-07-24T20:36:43.248Z,49.67
2017-07-24T20:39:10.762Z,49.73
2017-07-24T20:41:38.265Z,49.75
2017-07-24T20:44:05.823Z,49.78
2017-07-24T20:46:33.330Z,49.85
2017-07-24T20:49:00.843Z,49.88
2017-07-24T20:51:28.399Z,49.91
2017-07-24T20:53:55.906Z,49.96
2017-07-24T20:56:23.474Z,50.00
2017-07-24T20:58:50.986Z,50.01
2017-07-24T21:01:18.533Z,50.05
2017-07-24T21:03:46.144Z,50.09
2017-07-24T21:06:13.687Z,50.12
2017-07-24T21:08:41.208Z,50.15
2017-07-24T21:11:08.765Z,50.21
2017-07-24T21:13:36.269Z,50.19
2017-07-24T21:16:03.787Z,50.21
2017-07-24T21:18:31.340Z,50.24
2017-07-24T21:20:58.853Z,50.28
2017-07-24T21:23:26.373Z,50.33
2017-07-24T21:25:53.938Z,50.33
2017-07-24T21:28:21.501Z,50.34
2017-07-24T21:30:49.052Z,50.35
2017-07-24T21:33:16.596Z,50.42
2017-07-24T21:35:44.105Z,50.46
2017-07-24T21:38:11.647Z,50.44
2017-07-24T21:40:39.160Z,50.48
2017-07-24T21:43:06.723Z,50.52
2017-07-24T21:48:08.085Z,50.56
2017-07-24T21:50:35.617Z,50.55
2017-07-24T21:53:03.168Z,50.57
2017-07-24T21:55:30.677Z,50.57
2017-07-24T21:57:58.190Z,50.64
2017-07-24T22:00:25.745Z,50.67
2017-07-24T22:02:53.304Z,50.70
2017-07-24T22:05:20.857Z,50.74
2017-07-24T22:07:48.406Z,50.76
2017-07-24T22:10:16.002Z,50.79
2017-07-24T22:12:43.549Z,50.82
2017-07-24T22:15:11.061Z,50.84
2017-07-24T22:17:38.564Z,50.83
2017-07-24T22:20:06.149Z,50.87
2017-07-24T22:22:33.650Z,50.89
2017-07-24T22:25:01.200Z,50.91
2017-07-24T22:27:28.744Z,50.91
2017-07-24T22:29:56.294Z,50.95
2017-07-24T22:32:23.801Z,50.94
2017-07-24T22:34:51.305Z,51.00
2017-07-24T22:37:18.908Z,51.05
2017-07-24T22:39:46.412Z,51.03
2017-07-24T22:42:13.920Z,51.08
2017-07-24T22:44:41.471Z,51.09
2017-07-24T22:47:08.988Z,51.15
2017-07-24T22:49:36.547Z,51.14
2017-07-24T22:52:04.069Z,51.17
2017-07-24T22:54:31.586Z,51.16
2017-07-24T22:56:59.161Z,51.19
2017-07-24T22:59:26.666Z,51.21
2017-07-24T23:01:54.199Z,51.20
2017-07-24T23:04:21.746Z,51.23
2017-07-24T23:06:49.377Z,51.27
2017-07-24T23:09:16.880Z,51.28
2017-07-24T23:11:44.386Z,51.32
2017-07-24T23:14:11.937Z,51.30
2017-07-24T23:16:39.445Z,51.32
2017-07-24T23:19:06.991Z,51.35
2017-07-24T23:21:34.566Z,51.36
2017-07-24T23:24:02.089Z,51.37
2017-07-24T23:26:29.619Z,51.37
2017-07-24T23:28:57.160Z,51.41
2017-07-24T23:31:24.705Z,51.48
2017-07-24T23:33:52.265Z,51.51
2017-07-24T23:36:19.769Z,51.51
2017-07-24T23:38:47.272Z,51.55
2017-07-24T23:41:14.827Z,51.60
2017-07-24T23:43:42.328Z,51.64
2017-07-24T23:46:09.852Z,51.64
2017-07-24T23:48:37.401Z,51.66
2017-07-24T23:51:04.901Z,51.72
2017-07-24T23:53:32.404Z,51.68
2017-07-24T23:55:59.957Z,51.65
2017-07-24T23:58:27.461Z,51.63
